createdAt,value
2019-05-18T00:01:39.898Z,90
2019-05-18T00:07:08.190Z,90
2019-05-18T00:12:35.468Z,90
2019-05-18T00:18:03.853Z,90
2019-05-18T00:23:31.010Z,90
2019-05-18T00:28:59.786Z,90
2019-05-18T00:34:26.489Z,90
2019-05-18T00:39:53.860Z,90
2019-05-18T00:45:21.041Z,91
2019-05-18T00:50:48.277Z,91
2019-05-18T00:56:15.526Z,91
2019-05-18T01:01:43.813Z,91
2019-05-18T01:07:11.960Z,91
2019-05-18T01:12:40.266Z,91
2019-05-18T01:18:07.431Z,91
2019-05-18T01:23:35.705Z,91
2019-05-18T01:29:03.920Z,91
2019-05-18T01:34:32.172Z,92
2019-05-18T01:40:00.528Z,92
2019-05-18T01:45:27.680Z,92
2019-05-18T01:50:55.903Z,92
2019-05-18T01:56:23.123Z,92
2019-05-18T02:01:51.380Z,92
2019-05-18T02:07:19.598Z,92
2019-05-18T02:12:46.836Z,92
2019-05-18T02:18:26.805Z,92
2019-05-18T02:23:41.387Z,92
2019-05-18T02:29:08.563Z,92
2019-05-18T02:34:36.899Z,93
2019-05-18T02:40:05.038Z,93
2019-05-18T02:45:33.372Z,93
2019-05-18T02:51:00.527Z,93
2019-05-18T02:56:28.754Z,93
2019-05-18T03:01:57.080Z,93
2019-05-18T03:07:24.244Z,93
2019-05-18T03:18:20.752Z,93
2019-05-18T03:23:48.959Z,93
2019-05-18T03:29:17.203Z,93
2019-05-18T03:34:45.465Z,93
2019-05-18T03:40:13.638Z,94
2019-05-18T03:45:41.887Z,94
2019-05-18T03:51:10.300Z,94
2019-05-18T03:56:37.357Z,94
2019-05-18T04:02:04.651Z,94
2019-05-18T04:07:32.738Z,94
2019-05-18T04:13:02.210Z,94
2019-05-18T04:18:28.367Z,94
2019-05-18T04:23:56.452Z,94
2019-05-18T04:29:24.664Z,94
2019-05-18T04:34:52.987Z,94
2019-05-18T04:40:21.177Z,94
2019-05-18T04:45:48.395Z,94
2019-05-18T04:51:15.683Z,95
2019-05-18T04:56:43.342Z,95
2019-05-18T05:02:11.341Z,95
2019-05-18T05:07:38.393Z,95
2019-05-18T05:13:05.745Z,95
2019-05-18T05:18:33.976Z,95
2019-05-18T05:24:02.185Z,94
2019-05-18T05:29:30.435Z,95
2019-05-18T05:34:58.685Z,95
2019-05-18T05:40:25.930Z,95
2019-05-18T05:45:54.217Z,95
2019-05-18T05:51:21.477Z,95
2019-05-18T05:56:49.727Z,95
2019-05-18T06:02:18.093Z,95
2019-05-18T06:07:46.330Z,94
2019-05-18T06:13:14.726Z,94
2019-05-18T06:18:42.909Z,94
2019-05-18T06:24:11.473Z,94
2019-05-18T06:29:38.692Z,94
2019-05-18T06:35:06.000Z,94
2019-05-18T06:40:33.220Z,94
2019-05-18T06:46:05.649Z,93
2019-05-18T06:51:29.025Z,93
2019-05-18T06:57:03.392Z,93
2019-05-18T07:02:28.230Z,92
2019-05-18T07:07:51.992Z,92
2019-05-18T07:13:19.381Z,92
2019-05-18T07:18:54.892Z,92
2019-05-18T07:24:16.161Z,91
2019-05-18T07:29:43.491Z,92
2019-05-18T07:35:10.889Z,92
2019-05-18T07:40:38.242Z,92
2019-05-18T07:46:08.592Z,92
2019-05-18T07:51:36.805Z,91
2019-05-18T07:57:01.345Z,91
2019-05-18T08:02:28.834Z,91
2019-05-18T08:07:57.147Z,91
2019-05-18T08:13:25.698Z,92
2019-05-18T08:18:53.059Z,91
2019-05-18T08:24:20.798Z,90
2019-05-18T08:29:48.991Z,89
2019-05-18T08:40:45.129Z,89
2019-05-18T08:46:12.676Z,87
2019-05-18T08:57:08.985Z,88
2019-05-18T09:02:36.469Z,88
2019-05-18T09:08:04.196Z,86
2019-05-18T09:13:32.738Z,83
2019-05-18T09:19:00.422Z,85
2019-05-18T09:24:28.209Z,85
2019-05-18T09:29:55.704Z,86
2019-05-18T09:35:24.613Z,86
2019-05-18T09:40:53.008Z,86
2019-05-18T09:46:21.794Z,84
2019-05-18T09:51:49.433Z,85
2019-05-18T09:57:17.107Z,83
2019-05-18T10:02:44.821Z,83
2019-05-18T10:08:12.579Z,83
2019-05-18T10:13:41.281Z,82
2019-05-18T10:19:10.035Z,82
2019-05-18T10:24:37.814Z,82
2019-05-18T10:30:05.471Z,82
2019-05-18T10:35:33.221Z,81
2019-05-18T10:41:00.983Z,82
2019-05-18T10:46:28.810Z,81
2019-05-18T10:51:57.570Z,81
2019-05-18T10:57:26.370Z,80
2019-05-18T11:02:54.478Z,79
2019-05-18T11:08:22.086Z,80
2019-05-18T11:13:49.865Z,81
2019-05-18T11:19:17.635Z,81
2019-05-18T11:24:45.532Z,80
2019-05-18T11:30:14.321Z,79
2019-05-18T11:35:43.225Z,79
2019-05-18T11:41:12.105Z,80
2019-05-18T11:46:41.039Z,79
2019-05-18T11:52:09.812Z,79
2019-05-18T11:57:37.745Z,79
2019-05-18T12:03:06.683Z,79
2019-05-18T12:08:34.414Z,78
2019-05-18T12:14:03.415Z,78
2019-05-18T12:19:32.297Z,77
2019-05-18T12:25:00.283Z,76
2019-05-18T12:30:28.541Z,77
2019-05-18T12:35:56.211Z,76
2019-05-18T12:41:25.187Z,76
2019-05-18T12:46:54.357Z,77
2019-05-18T12:52:23.163Z,74
2019-05-18T12:57:51.197Z,72
2019-05-18T13:03:20.556Z,74
2019-05-18T13:08:49.167Z,75
2019-05-18T13:14:17.292Z,75
2019-05-18T13:19:45.270Z,75
2019-05-18T13:25:14.361Z,75
2019-05-18T13:30:43.353Z,74
2019-05-18T13:36:12.603Z,72
2019-05-18T13:41:41.447Z,72
2019-05-18T13:47:10.888Z,73
2019-05-18T13:52:38.734Z,73
2019-05-18T13:58:07.748Z,72
2019-05-18T14:03:35.755Z,74
2019-05-18T14:09:03.830Z,73
2019-05-18T14:14:32.903Z,72
2019-05-18T14:20:01.061Z,72
2019-05-18T14:25:29.171Z,71
2019-05-18T14:30:57.458Z,71
2019-05-18T14:36:26.286Z,73
2019-05-18T14:41:54.374Z,72
2019-05-18T14:47:22.477Z,71
2019-05-18T14:52:51.806Z,72
2019-05-18T14:58:19.796Z,72
2019-05-18T15:03:47.817Z,71
2019-05-18T15:09:16.957Z,71
2019-05-18T15:14:46.037Z,72
2019-05-18T15:20:14.158Z,70
2019-05-18T15:25:50.487Z,71
2019-05-18T15:31:11.374Z,71
2019-05-18T15:36:40.543Z,71
2019-05-18T15:42:08.569Z,71
2019-05-18T15:47:36.769Z,70
2019-05-18T15:53:05.885Z,70
2019-05-18T15:58:34.893Z,71
2019-05-18T16:04:03.010Z,70
2019-05-18T16:09:32.082Z,70
2019-05-18T16:15:01.152Z,71
2019-05-18T16:20:30.465Z,71
2019-05-18T16:25:58.345Z,70
2019-05-18T16:31:26.491Z,69
2019-05-18T16:36:54.642Z,68
2019-05-18T16:42:23.587Z,69
2019-05-18T16:47:52.714Z,69
2019-05-18T16:53:20.707Z,70
2019-05-18T16:58:49.681Z,70
2019-05-18T17:04:17.710Z,70
2019-05-18T17:09:45.791Z,70
2019-05-18T17:15:13.661Z,70
2019-05-18T17:20:41.547Z,70
2019-05-18T17:26:09.481Z,70
2019-05-18T17:31:37.400Z,70
2019-05-18T17:37:05.306Z,70
2019-05-18T17:48:02.173Z,70
2019-05-18T17:53:30.173Z,70
2019-05-18T17:58:57.996Z,71
2019-05-18T18:04:25.939Z,70
2019-05-18T18:09:53.807Z,71
2019-05-18T18:15:23.039Z,71
2019-05-18T18:20:50.602Z,72
2019-05-18T18:26:19.294Z,72
2019-05-18T18:31:47.145Z,73
2019-05-18T18:37:23.630Z,73
2019-05-18T18:42:42.813Z,73
2019-05-18T18:48:10.652Z,73
2019-05-18T18:53:39.494Z,73
2019-05-18T18:59:08.134Z,73
2019-05-18T19:04:35.896Z,73
2019-05-18T19:10:03.561Z,73
2019-05-18T19:15:32.363Z,73
2019-05-18T19:21:00.029Z,73
2019-05-18T19:26:27.783Z,73
2019-05-18T19:31:56.487Z,73
2019-05-18T19:37:26.437Z,74
2019-05-18T19:42:52.874Z,74
2019-05-18T19:48:20.595Z,74
2019-05-18T19:53:49.140Z,75
2019-05-18T19:59:17.841Z,75
2019-05-18T20:05:03.857Z,75
2019-05-18T20:10:14.129Z,76
2019-05-18T20:15:41.760Z,76
2019-05-18T20:21:10.362Z,77
2019-05-18T20:26:37.958Z,77
2019-05-18T20:32:05.603Z,78
2019-05-18T20:37:33.175Z,78
2019-05-18T20:43:01.904Z,79
2019-05-18T20:48:29.447Z,79
2019-05-18T20:53:58.013Z,79
2019-05-18T20:59:25.934Z,79
2019-05-18T21:04:53.144Z,79
2019-05-18T21:10:21.751Z,79
2019-05-18T21:15:50.214Z,79
2019-05-18T21:21:23.330Z,79
2019-05-18T21:26:46.314Z,79
2019-05-18T21:32:14.907Z,80
2019-05-18T21:37:44.125Z,79
2019-05-18T21:43:11.000Z,80
2019-05-18T21:48:39.461Z,80
2019-05-18T21:54:08.062Z,80
2019-05-18T21:59:35.553Z,80
2019-05-18T22:05:03.095Z,80
2019-05-18T22:10:30.531Z,80
2019-05-18T22:15:59.049Z,81
2019-05-18T22:21:26.598Z,81
2019-05-18T22:26:54.131Z,81
2019-05-18T22:32:21.727Z,81
2019-05-18T22:37:49.017Z,81
2019-05-18T22:43:16.573Z,81
2019-05-18T22:48:44.044Z,81
2019-05-18T22:54:12.553Z,82
2019-05-18T22:59:40.971Z,81
2019-05-18T23:05:08.496Z,82
2019-05-18T23:10:35.900Z,82
2019-05-18T23:16:03.425Z,82
2019-05-18T23:21:31.865Z,83
2019-05-18T23:26:59.299Z,84
2019-05-18T23:32:26.808Z,84
2019-05-18T23:37:54.267Z,84
2019-05-18T23:43:22.806Z,84
2019-05-18T23:48:49.234Z,85
2019-05-18T23:54:17.780Z,85
2019-05-18T23:59:46.209Z,85
